sensor_id;sensor_type;location;lat;lon;timestamp;temperature;humidity
3614;DHT22;1821;50.936;6.854;2023-05-21T00:25:09;13.60;99.90
3614;DHT22;1821;50.936;6.854;2023-05-21T00:43:44;13.50;99.90
3614;DHT22;1821;50.936;6.854;2023-05-21T00:44:26;13.80;99.90
3614;DHT22;1821;50.936;6.854;2023-05-21T00:45:08;13.80;99.90
3614;DHT22;1821;50.936;6.854;2023-05-21T00:45:51;13.80;99.90
3614;DHT22;1821;50.936;6.854;2023-05-21T00:46:35;13.60;99.90
3614;DHT22;1821;50.936;6.854;2023-05-21T00:47:17;13.60;99.90
3614;DHT22;1821;50.936;6.854;2023-05-21T00:47:59;13.70;99.90
3614;DHT22;1821;50.936;6.854;2023-05-21T00:48:44;13.80;99.90
3614;DHT22;1821;50.936;6.854;2023-05-21T00:49:27;13.60;99.90
3614;DHT22;1821;50.936;6.854;2023-05-21T00:50:11;13.80;99.90
3614;DHT22;1821;50.936;6.854;2023-05-21T00:50:55;13.60;99.90
3614;DHT22;1821;50.936;6.854;2023-05-21T00:51:38;13.90;99.90
3614;DHT22;1821;50.936;6.854;2023-05-21T00:52:20;13.60;99.90
3614;DHT22;1821;50.936;6.854;2023-05-21T00:53:02;13.50;99.90
3614;DHT22;1821;50.936;6.854;2023-05-21T00:53:45;13.70;99.90
3614;DHT22;1821;50.936;6.854;2023-05-21T00:54:29;13.50;99.90
3614;DHT22;1821;50.936;6.854;2023-05-21T00:55:12;13.90;99.90
3614;DHT22;1821;50.936;6.854;2023-05-21T00:55:54;13.60;99.90
3614;DHT22;1821;50.936;6.854;2023-05-21T00:56:39;13.80;99.90
3614;DHT22;1821;50.936;6.854;2023-05-21T00:57:22;13.60;99.90
3614;DHT22;1821;50.936;6.854;2023-05-21T00:58:07;13.50;99.90
3614;DHT22;1821;50.936;6.854;2023-05-21T00:58:50;13.80;99.90
3614;DHT22;1821;50.936;6.854;2023-05-21T00:59:35;13.60;99.90
3614;DHT22;1821;50.936;6.854;2023-05-21T01:00:17;13.60;99.90
3614;DHT22;1821;50.936;6.854;2023-05-21T01:00:59;13.70;99.90
3614;DHT22;1821;50.936;6.854;2023-05-21T01:01:47;13.80;99.90
3614;DHT22;1821;50.936;6.854;2023-05-21T01:02:37;13.50;99.90
3614;DHT22;1821;50.936;6.854;2023-05-21T01:03:19;13.80;99.90
3614;DHT22;1821;50.936;6.854;2023-05-21T01:04:02;13.70;99.90
3614;DHT22;1821;50.936;6.854;2023-05-21T01:06:13;13.70;99.90
3614;DHT22;1821;50.936;6.854;2023-05-21T01:06:55;13.30;99.90
3614;DHT22;1821;50.936;6.854;2023-05-21T01:07:39;13.40;99.90
3614;DHT22;1821;50.936;6.854;2023-05-21T01:08:22;13.50;99.90
3614;DHT22;1821;50.936;6.854;2023-05-21T01:09:05;13.40;99.90
3614;DHT22;1821;50.936;6.854;2023-05-21T01:11:14;13.40;99.90
3614;DHT22;1821;50.936;6.854;2023-05-21T01:12:43;13.40;99.90
3614;DHT22;1821;50.936;6.854;2023-05-21T01:13:26;13.40;99.90
3614;DHT22;1821;50.936;6.854;2023-05-21T01:14:12;13.40;99.90
3614;DHT22;1821;50.936;6.854;2023-05-21T01:14:56;13.50;99.90
3614;DHT22;1821;50.936;6.854;2023-05-21T01:15:44;13.60;99.90
3614;DHT22;1821;50.936;6.854;2023-05-21T01:16:27;13.60;99.90
3614;DHT22;1821;50.936;6.854;2023-05-21T01:18:34;13.50;99.90
3614;DHT22;1821;50.936;6.854;2023-05-21T01:19:20;13.50;99.90
3614;DHT22;1821;50.936;6.854;2023-05-21T01:20:04;13.50;99.90
3614;DHT22;1821;50.936;6.854;2023-05-21T01:20:58;13.60;99.90
3614;DHT22;1821;50.936;6.854;2023-05-21T01:21:44;13.80;99.90
3614;DHT22;1821;50.936;6.854;2023-05-21T01:22:30;13.50;99.90
3614;DHT22;1821;50.936;6.854;2023-05-21T01:23:15;13.70;99.90
3614;DHT22;1821;50.936;6.854;2023-05-21T01:23:58;13.70;99.90
3614;DHT22;1821;50.936;6.854;2023-05-21T01:24:40;13.40;99.90
3614;DHT22;1821;50.936;6.854;2023-05-21T01:25:28;13.70;99.90
3614;DHT22;1821;50.936;6.854;2023-05-21T01:26:10;13.50;99.90
3614;DHT22;1821;50.936;6.854;2023-05-21T01:26:53;13.90;99.90
3614;DHT22;1821;50.936;6.854;2023-05-21T01:28:17;13.60;99.90
3614;DHT22;1821;50.936;6.854;2023-05-21T01:29:02;13.60;99.90
3614;DHT22;1821;50.936;6.854;2023-05-21T01:30:26;13.40;99.90
3614;DHT22;1821;50.936;6.854;2023-05-21T01:31:29;13.60;99.90
3614;DHT22;1821;50.936;6.854;2023-05-21T01:33:40;13.70;99.90
3614;DHT22;1821;50.936;6.854;2023-05-21T01:34:39;13.70;99.90
3614;DHT22;1821;50.936;6.854;2023-05-21T01:36:14;13.70;99.90
3614;DHT22;1821;50.936;6.854;2023-05-21T01:36:33;13.70;99.90
3614;DHT22;1821;50.936;6.854;2023-05-21T01:37:22;13.80;99.90
3614;DHT22;1821;50.936;6.854;2023-05-21T01:40:09;13.50;99.90
3614;DHT22;1821;50.936;6.854;2023-05-21T01:41:37;13.60;99.90
3614;DHT22;1821;50.936;6.854;2023-05-21T01:42:22;13.70;99.90
3614;DHT22;1821;50.936;6.854;2023-05-21T01:43:06;13.60;99.90
3614;DHT22;1821;50.936;6.854;2023-05-21T01:43:49;13.70;99.90
3614;DHT22;1821;50.936;6.854;2023-05-21T01:45:15;13.70;99.90
3614;DHT22;1821;50.936;6.854;2023-05-21T01:45:58;13.70;99.90
3614;DHT22;1821;50.936;6.854;2023-05-21T01:46:40;13.60;99.90
3614;DHT22;1821;50.936;6.854;2023-05-21T01:47:23;13.70;99.90
3614;DHT22;1821;50.936;6.854;2023-05-21T01:48:51;13.60;99.90
3614;DHT22;1821;50.936;6.854;2023-05-21T01:49:37;13.80;99.90
3614;DHT22;1821;50.936;6.854;2023-05-21T01:50:22;13.50;99.90
3614;DHT22;1821;50.936;6.854;2023-05-21T01:51:05;13.70;99.90
3614;DHT22;1821;50.936;6.854;2023-05-21T01:51:48;13.60;99.90
3614;DHT22;1821;50.936;6.854;2023-05-21T01:52:30;13.70;99.90
3614;DHT22;1821;50.936;6.854;2023-05-21T01:53:14;13.70;99.90
3614;DHT22;1821;50.936;6.854;2023-05-21T01:54:40;13.60;99.90
3614;DHT22;1821;50.936;6.854;2023-05-21T01:56:06;13.50;99.90
3614;DHT22;1821;50.936;6.854;2023-05-21T01:56:49;13.50;99.90
3614;DHT22;1821;50.936;6.854;2023-05-21T01:57:31;13.40;99.90
3614;DHT22;1821;50.936;6.854;2023-05-21T01:58:14;13.60;99.90
3614;DHT22;1821;50.936;6.854;2023-05-21T01:58:59;13.60;99.90
3614;DHT22;1821;50.936;6.854;2023-05-21T02:00:26;13.50;99.90
3614;DHT22;1821;50.936;6.854;2023-05-21T02:01:12;13.30;99.90
3614;DHT22;1821;50.936;6.854;2023-05-21T02:01:53;13.30;99.90
3614;DHT22;1821;50.936;6.854;2023-05-21T02:02:36;13.60;99.90
3614;DHT22;1821;50.936;6.854;2023-05-21T02:03:18;13.50;99.90
3614;DHT22;1821;50.936;6.854;2023-05-21T02:04:03;13.40;99.90
3614;DHT22;1821;50.936;6.854;2023-05-21T02:04:48;13.30;99.90
3614;DHT22;1821;50.936;6.854;2023-05-21T02:05:31;13.40;99.90
3614;DHT22;1821;50.936;6.854;2023-05-21T02:07:44;13.20;99.90
3614;DHT22;1821;50.936;6.854;2023-05-21T02:08:26;13.60;99.90
3614;DHT22;1821;50.936;6.854;2023-05-21T02:09:08;13.10;99.90
3614;DHT22;1821;50.936;6.854;2023-05-21T02:09:51;13.50;99.90
3614;DHT22;1821;50.936;6.854;2023-05-21T02:12:42;13.10;99.90
3614;DHT22;1821;50.936;6.854;2023-05-21T02:13:25;13.10;99.90
3614;DHT22;1821;50.936;6.854;2023-05-21T02:14:07;13.40;99.90
3614;DHT22;1821;50.936;6.854;2023-05-21T02:14:53;13.20;99.90
3614;DHT22;1821;50.936;6.854;2023-05-21T02:15:37;13.20;99.90
3614;DHT22;1821;50.936;6.854;2023-05-21T02:16:19;13.30;99.90
3614;DHT22;1821;50.936;6.854;2023-05-21T02:17:03;13.40;99.90
3614;DHT22;1821;50.936;6.854;2023-05-21T02:17:46;13.30;99.90
3614;DHT22;1821;50.936;6.854;2023-05-21T02:18:28;13.20;99.90
3614;DHT22;1821;50.936;6.854;2023-05-21T02:19:10;13.00;99.90
3614;DHT22;1821;50.936;6.854;2023-05-21T02:19:54;12.90;99.90
3614;DHT22;1821;50.936;6.854;2023-05-21T02:20:36;13.10;99.90
3614;DHT22;1821;50.936;6.854;2023-05-21T02:21:18;13.30;99.90
3614;DHT22;1821;50.936;6.854;2023-05-21T02:22:03;13.20;99.90
3614;DHT22;1821;50.936;6.854;2023-05-21T02:22:48;13.10;99.90
3614;DHT22;1821;50.936;6.854;2023-05-21T02:23:32;13.30;99.90
3614;DHT22;1821;50.936;6.854;2023-05-21T02:24:14;13.30;99.90
3614;DHT22;1821;50.936;6.854;2023-05-21T02:24:57;13.20;99.90
3614;DHT22;1821;50.936;6.854;2023-05-21T02:27:04;13.10;99.90
3614;DHT22;1821;50.936;6.854;2023-05-21T02:27:47;13.00;99.90
3614;DHT22;1821;50.936;6.854;2023-05-21T02:28:29;13.00;99.90
3614;DHT22;1821;50.936;6.854;2023-05-21T02:29:13;13.40;99.90
3614;DHT22;1821;50.936;6.854;2023-05-21T02:29:55;13.10;99.90
3614;DHT22;1821;50.936;6.854;2023-05-21T02:30:37;13.20;99.90
3614;DHT22;1821;50.936;6.854;2023-05-21T02:31:19;13.30;99.90
3614;DHT22;1821;50.936;6.854;2023-05-21T02:32:44;13.10;99.90
3614;DHT22;1821;50.936;6.854;2023-05-21T02:34:51;13.30;99.90
3614;DHT22;1821;50.936;6.854;2023-05-21T02:35:33;13.50;99.90
3614;DHT22;1821;50.936;6.854;2023-05-21T02:36:16;13.10;99.90
3614;DHT22;1821;50.936;6.854;2023-05-21T02:36:59;13.30;99.90
3614;DHT22;1821;50.936;6.854;2023-05-21T02:37:42;13.10;99.90
3614;DHT22;1821;50.936;6.854;2023-05-21T02:38:27;12.50;99.90
3614;DHT22;1821;50.936;6.854;2023-05-21T02:39:09;13.10;99.90
3614;DHT22;1821;50.936;6.854;2023-05-21T02:39:54;13.10;99.90
3614;DHT22;1821;50.936;6.854;2023-05-21T02:40:39;13.20;99.90
3614;DHT22;1821;50.936;6.854;2023-05-21T02:41:21;13.10;99.90
3614;DHT22;1821;50.936;6.854;2023-05-21T02:42:48;13.00;99.90
3614;DHT22;1821;50.936;6.854;2023-05-21T02:43:30;13.20;99.90
3614;DHT22;1821;50.936;6.854;2023-05-21T02:44:14;13.10;99.90
3614;DHT22;1821;50.936;6.854;2023-05-21T02:44:59;13.20;99.90
3614;DHT22;1821;50.936;6.854;2023-05-21T02:45:41;12.90;99.90
3614;DHT22;1821;50.936;6.854;2023-05-21T02:46:23;13.00;99.90
3614;DHT22;1821;50.936;6.854;2023-05-21T02:47:07;13.20;99.90
3614;DHT22;1821;50.936;6.854;2023-05-21T02:48:33;13.00;99.90
3614;DHT22;1821;50.936;6.854;2023-05-21T02:49:15;13.00;99.90
3614;DHT22;1821;50.936;6.854;2023-05-21T02:50:42;12.80;99.90
3614;DHT22;1821;50.936;6.854;2023-05-21T02:51:24;12.90;99.90
3614;DHT22;1821;50.936;6.854;2023-05-21T02:52:51;12.90;99.90
3614;DHT22;1821;50.936;6.854;2023-05-21T02:54:18;13.00;99.90
3614;DHT22;1821;50.936;6.854;2023-05-21T02:54:59;12.80;99.90
3614;DHT22;1821;50.936;6.854;2023-05-21T02:55:41;13.10;99.90
3614;DHT22;1821;50.936;6.854;2023-05-21T02:56:23;13.20;99.90
3614;DHT22;1821;50.936;6.854;2023-05-21T02:58:33;13.00;99.90
3614;DHT22;1821;50.936;6.854;2023-05-21T02:59:15;13.20;99.90
3614;DHT22;1821;50.936;6.854;2023-05-21T03:00:40;12.90;99.90
3614;DHT22;1821;50.936;6.854;2023-05-21T03:01:22;12.90;99.90
3614;DHT22;1821;50.936;6.854;2023-05-21T03:02:04;13.00;99.90
3614;DHT22;1821;50.936;6.854;2023-05-21T03:02:46;13.10;99.90
3614;DHT22;1821;50.936;6.854;2023-05-21T03:03:28;13.20;99.90
3614;DHT22;1821;50.936;6.854;2023-05-21T03:04:11;13.20;99.90
3614;DHT22;1821;50.936;6.854;2023-05-21T03:04:53;12.90;99.90
3614;DHT22;1821;50.936;6.854;2023-05-21T03:05:35;13.00;99.90
3614;DHT22;1821;50.936;6.854;2023-05-21T03:07:42;13.00;99.90
3614;DHT22;1821;50.936;6.854;2023-05-21T03:08:24;12.90;99.90
3614;DHT22;1821;50.936;6.854;2023-05-21T03:09:10;13.00;99.90
3614;DHT22;1821;50.936;6.854;2023-05-21T03:09:52;13.20;99.90
3614;DHT22;1821;50.936;6.854;2023-05-21T03:10:34;12.80;99.90
3614;DHT22;1821;50.936;6.854;2023-05-21T03:11:17;12.70;99.90
3614;DHT22;1821;50.936;6.854;2023-05-21T03:11:59;13.10;99.90
3614;DHT22;1821;50.936;6.854;2023-05-21T03:14:52;12.90;99.90
3614;DHT22;1821;50.936;6.854;2023-05-21T03:15:34;13.10;99.90
3614;DHT22;1821;50.936;6.854;2023-05-21T03:16:17;13.20;99.90
3614;DHT22;1821;50.936;6.854;2023-05-21T03:16:58;12.90;99.90
3614;DHT22;1821;50.936;6.854;2023-05-21T03:17:41;13.00;99.90
3614;DHT22;1821;50.936;6.854;2023-05-21T03:18:23;12.90;99.90
3614;DHT22;1821;50.936;6.854;2023-05-21T03:19:05;13.20;99.90
3614;DHT22;1821;50.936;6.854;2023-05-21T03:19:47;12.90;99.90
3614;DHT22;1821;50.936;6.854;2023-05-21T03:21:12;12.90;99.90
3614;DHT22;1821;50.936;6.854;2023-05-21T03:21:55;12.90;99.90
3614;DHT22;1821;50.936;6.854;2023-05-21T03:22:37;13.10;99.90
3614;DHT22;1821;50.936;6.854;2023-05-21T03:23:20;13.30;99.90
3614;DHT22;1821;50.936;6.854;2023-05-21T03:24:05;13.20;99.90
3614;DHT22;1821;50.936;6.854;2023-05-21T03:26:12;12.90;99.90
3614;DHT22;1821;50.936;6.854;2023-05-21T03:26:54;13.00;99.90
3614;DHT22;1821;50.936;6.854;2023-05-21T03:29:44;13.00;99.90
3614;DHT22;1821;50.936;6.854;2023-05-21T03:30:29;13.20;99.90
3614;DHT22;1821;50.936;6.854;2023-05-21T03:31:11;12.80;99.90
3614;DHT22;1821;50.936;6.854;2023-05-21T03:31:56;12.90;99.90
3614;DHT22;1821;50.936;6.854;2023-05-21T03:32:40;12.90;99.90
3614;DHT22;1821;50.936;6.854;2023-05-21T03:34:10;13.00;99.90
3614;DHT22;1821;50.936;6.854;2023-05-21T03:34:52;13.10;99.90
3614;DHT22;1821;50.936;6.854;2023-05-21T03:35:34;13.20;99.90
3614;DHT22;1821;50.936;6.854;2023-05-21T03:36:17;12.90;99.90
3614;DHT22;1821;50.936;6.854;2023-05-21T03:36:59;12.90;99.90
3614;DHT22;1821;50.936;6.854;2023-05-21T03:39:06;13.00;99.90
3614;DHT22;1821;50.936;6.854;2023-05-21T03:39:51;13.20;99.90
3614;DHT22;1821;50.936;6.854;2023-05-21T03:40:33;13.10;99.90
3614;DHT22;1821;50.936;6.854;2023-05-21T03:41:15;13.00;99.90
3614;DHT22;1821;50.936;6.854;2023-05-21T03:41:57;13.20;99.90
3614;DHT22;1821;50.936;6.854;2023-05-21T03:42:39;13.10;99.90
3614;DHT22;1821;50.936;6.854;2023-05-21T03:43:21;13.20;99.90
3614;DHT22;1821;50.936;6.854;2023-05-21T03:44:03;13.10;99.90
3614;DHT22;1821;50.936;6.854;2023-05-21T03:44:47;13.30;99.90
3614;DHT22;1821;50.936;6.854;2023-05-21T03:45:29;13.20;99.90
3614;DHT22;1821;50.936;6.854;2023-05-21T03:46:11;13.20;99.90
3614;DHT22;1821;50.936;6.854;2023-05-21T03:46:53;13.00;99.90
3614;DHT22;1821;50.936;6.854;2023-05-21T03:47:38;13.30;99.90
3614;DHT22;1821;50.936;6.854;2023-05-21T03:48:20;12.80;99.90
3614;DHT22;1821;50.936;6.854;2023-05-21T03:49:02;13.30;99.90
3614;DHT22;1821;50.936;6.854;2023-05-21T03:49:43;12.80;99.90
3614;DHT22;1821;50.936;6.854;2023-05-21T03:51:08;13.00;99.90
3614;DHT22;1821;50.936;6.854;2023-05-21T03:51:52;12.80;99.90
3614;DHT22;1821;50.936;6.854;2023-05-21T03:53:17;12.80;99.90
3614;DHT22;1821;50.936;6.854;2023-05-21T03:53:59;13.00;99.90
3614;DHT22;1821;50.936;6.854;2023-05-21T03:55:24;13.00;99.90
3614;DHT22;1821;50.936;6.854;2023-05-21T03:56:06;13.10;99.90
3614;DHT22;1821;50.936;6.854;2023-05-21T03:56:48;12.90;99.90
3614;DHT22;1821;50.936;6.854;2023-05-21T03:57:31;12.80;99.90
3614;DHT22;1821;50.936;6.854;2023-05-21T03:58:13;13.00;99.90
3614;DHT22;1821;50.936;6.854;2023-05-21T03:58:55;13.30;99.90
3614;DHT22;1821;50.936;6.854;2023-05-21T03:59:37;13.00;99.90
3614;DHT22;1821;50.936;6.854;2023-05-21T04:00:19;13.00;99.90
3614;DHT22;1821;50.936;6.854;2023-05-21T04:01:46;12.80;99.90
3614;DHT22;1821;50.936;6.854;2023-05-21T04:03:53;12.80;99.90
3614;DHT22;1821;50.936;6.854;2023-05-21T04:04:35;13.00;99.90
3614;DHT22;1821;50.936;6.854;2023-05-21T04:05:18;13.00;99.90
3614;DHT22;1821;50.936;6.854;2023-05-21T04:06:45;12.90;99.90
3614;DHT22;1821;50.936;6.854;2023-05-21T04:07:27;13.10;99.90
3614;DHT22;1821;50.936;6.854;2023-05-21T04:08:10;13.00;99.90
3614;DHT22;1821;50.936;6.854;2023-05-21T04:08:52;13.00;99.90
3614;DHT22;1821;50.936;6.854;2023-05-21T04:09:34;13.10;99.90
3614;DHT22;1821;50.936;6.854;2023-05-21T04:10:17;12.70;99.90
3614;DHT22;1821;50.936;6.854;2023-05-21T04:10:59;12.80;99.90
3614;DHT22;1821;50.936;6.854;2023-05-21T04:11:41;13.00;99.90
3614;DHT22;1821;50.936;6.854;2023-05-21T04:12:23;12.90;99.90
3614;DHT22;1821;50.936;6.854;2023-05-21T04:13:05;12.90;99.90
3614;DHT22;1821;50.936;6.854;2023-05-21T04:13:47;12.90;99.90
3614;DHT22;1821;50.936;6.854;2023-05-21T04:14:28;13.00;99.90
3614;DHT22;1821;50.936;6.854;2023-05-21T04:15:12;13.00;99.90
3614;DHT22;1821;50.936;6.854;2023-05-21T04:15:55;12.80;99.90
3614;DHT22;1821;50.936;6.854;2023-05-21T04:16:38;12.80;99.90
3614;DHT22;1821;50.936;6.854;2023-05-21T04:17:24;13.20;99.90
3614;DHT22;1821;50.936;6.854;2023-05-21T04:18:50;13.30;99.90
3614;DHT22;1821;50.936;6.854;2023-05-21T04:19:33;12.90;99.90
3614;DHT22;1821;50.936;6.854;2023-05-21T04:20:15;12.80;99.90
3614;DHT22;1821;50.936;6.854;2023-05-21T04:20:57;12.80;99.90
3614;DHT22;1821;50.936;6.854;2023-05-21T04:21:41;12.70;99.90
3614;DHT22;1821;50.936;6.854;2023-05-21T04:22:25;12.80;99.90
3614;DHT22;1821;50.936;6.854;2023-05-21T04:23:08;12.90;99.90
3614;DHT22;1821;50.936;6.854;2023-05-21T04:23:50;12.90;99.90
3614;DHT22;1821;50.936;6.854;2023-05-21T04:24:34;13.20;99.90
3614;DHT22;1821;50.936;6.854;2023-05-21T04:25:20;12.70;99.90
3614;DHT22;1821;50.936;6.854;2023-05-21T04:26:46;12.80;99.90
3614;DHT22;1821;50.936;6.854;2023-05-21T04:27:28;12.80;99.90
3614;DHT22;1821;50.936;6.854;2023-05-21T04:28:10;12.90;99.90
3614;DHT22;1821;50.936;6.854;2023-05-21T04:28:52;13.10;99.90
3614;DHT22;1821;50.936;6.854;2023-05-21T04:29:35;13.10;99.90
3614;DHT22;1821;50.936;6.854;2023-05-21T04:30:18;12.90;99.90
3614;DHT22;1821;50.936;6.854;2023-05-21T04:31:03;12.80;99.90
3614;DHT22;1821;50.936;6.854;2023-05-21T04:31:47;13.00;99.90
3614;DHT22;1821;50.936;6.854;2023-05-21T04:32:30;13.10;99.90
3614;DHT22;1821;50.936;6.854;2023-05-21T04:34:41;13.30;99.90
3614;DHT22;1821;50.936;6.854;2023-05-21T04:35:23;13.10;99.90
3614;DHT22;1821;50.936;6.854;2023-05-21T04:36:08;13.20;99.90
3614;DHT22;1821;50.936;6.854;2023-05-21T04:36:51;13.20;99.90
3614;DHT22;1821;50.936;6.854;2023-05-21T04:37:33;12.70;99.90
3614;DHT22;1821;50.936;6.854;2023-05-21T04:38:18;12.90;99.90
3614;DHT22;1821;50.936;6.854;2023-05-21T04:39:44;12.90;99.90
3614;DHT22;1821;50.936;6.854;2023-05-21T04:40:26;13.00;99.90
3614;DHT22;1821;50.936;6.854;2023-05-21T04:41:08;13.00;99.90
3614;DHT22;1821;50.936;6.854;2023-05-21T04:42:35;12.90;99.90
3614;DHT22;1821;50.936;6.854;2023-05-21T04:43:18;13.10;99.90
3614;DHT22;1821;50.936;6.854;2023-05-21T04:46:19;13.10;99.90
3614;DHT22;1821;50.936;6.854;2023-05-21T04:47:01;13.00;99.90
3614;DHT22;1821;50.936;6.854;2023-05-21T04:47:43;12.90;99.90
3614;DHT22;1821;50.936;6.854;2023-05-21T04:48:25;12.90;99.90
3614;DHT22;1821;50.936;6.854;2023-05-21T04:49:51;12.80;99.90
3614;DHT22;1821;50.936;6.854;2023-05-21T04:50:34;13.00;99.90
3614;DHT22;1821;50.936;6.854;2023-05-21T04:53:23;12.70;99.90
3614;DHT22;1821;50.936;6.854;2023-05-21T04:54:06;13.10;99.90
3614;DHT22;1821;50.936;6.854;2023-05-21T04:54:50;13.30;99.90
3614;DHT22;1821;50.936;6.854;2023-05-21T04:55:34;13.20;99.90
3614;DHT22;1821;50.936;6.854;2023-05-21T04:56:20;13.20;99.90
3614;DHT22;1821;50.936;6.854;2023-05-21T05:01:32;13.00;99.90
3614;DHT22;1821;50.936;6.854;2023-05-21T05:02:15;12.90;99.90
3614;DHT22;1821;50.936;6.854;2023-05-21T05:02:57;13.10;99.90
3614;DHT22;1821;50.936;6.854;2023-05-21T05:03:39;13.10;99.90
3614;DHT22;1821;50.936;6.854;2023-05-21T05:05:06;13.00;99.90
3614;DHT22;1821;50.936;6.854;2023-05-21T05:05:48;13.00;99.90
3614;DHT22;1821;50.936;6.854;2023-05-21T05:06:30;12.90;99.90
3614;DHT22;1821;50.936;6.854;2023-05-21T05:07:12;13.10;99.90
3614;DHT22;1821;50.936;6.854;2023-05-21T05:07:54;13.20;99.90
3614;DHT22;1821;50.936;6.854;2023-05-21T05:08:39;13.00;99.90
3614;DHT22;1821;50.936;6.854;2023-05-21T05:09:21;13.00;99.90
3614;DHT22;1821;50.936;6.854;2023-05-21T05:10:06;13.30;99.90
3614;DHT22;1821;50.936;6.854;2023-05-21T05:11:30;13.00;99.90
3614;DHT22;1821;50.936;6.854;2023-05-21T05:13:39;13.00;99.90
3614;DHT22;1821;50.936;6.854;2023-05-21T05:15:04;13.30;99.90
3614;DHT22;1821;50.936;6.854;2023-05-21T05:16:35;13.30;99.90
3614;DHT22;1821;50.936;6.854;2023-05-21T05:20:10;13.10;99.90
3614;DHT22;1821;50.936;6.854;2023-05-21T05:20:52;13.30;99.90
3614;DHT22;1821;50.936;6.854;2023-05-21T05:21:34;13.30;99.90
3614;DHT22;1821;50.936;6.854;2023-05-21T05:22:16;12.90;99.90
3614;DHT22;1821;50.936;6.854;2023-05-21T05:25:05;13.30;99.90
3614;DHT22;1821;50.936;6.854;2023-05-21T05:25:47;13.20;99.90
3614;DHT22;1821;50.936;6.854;2023-05-21T05:26:29;13.20;99.90
3614;DHT22;1821;50.936;6.854;2023-05-21T05:27:11;13.00;99.90
3614;DHT22;1821;50.936;6.854;2023-05-21T05:27:53;13.30;99.90
3614;DHT22;1821;50.936;6.854;2023-05-21T05:28:35;13.00;99.90
3614;DHT22;1821;50.936;6.854;2023-05-21T05:29:17;13.00;99.90
3614;DHT22;1821;50.936;6.854;2023-05-21T05:29:59;13.10;99.90
3614;DHT22;1821;50.936;6.854;2023-05-21T05:30:41;13.30;99.90
3614;DHT22;1821;50.936;6.854;2023-05-21T05:31:23;13.10;99.90
3614;DHT22;1821;50.936;6.854;2023-05-21T05:32:06;13.20;99.90
3614;DHT22;1821;50.936;6.854;2023-05-21T05:33:30;13.30;99.90
3614;DHT22;1821;50.936;6.854;2023-05-21T05:34:15;13.30;99.90
3614;DHT22;1821;50.936;6.854;2023-05-21T05:34:58;13.20;99.90
3614;DHT22;1821;50.936;6.854;2023-05-21T05:35:42;13.40;99.90
3614;DHT22;1821;50.936;6.854;2023-05-21T05:36:24;13.40;99.90
3614;DHT22;1821;50.936;6.854;2023-05-21T05:37:07;13.50;99.90
3614;DHT22;1821;50.936;6.854;2023-05-21T05:37:49;13.30;99.90
3614;DHT22;1821;50.936;6.854;2023-05-21T05:38:31;13.50;99.90
3614;DHT22;1821;50.936;6.854;2023-05-21T05:39:15;13.30;99.90
3614;DHT22;1821;50.936;6.854;2023-05-21T05:39:57;13.20;99.90
3614;DHT22;1821;50.936;6.854;2023-05-21T05:40:39;13.20;99.90
3614;DHT22;1821;50.936;6.854;2023-05-21T05:42:47;13.40;99.90
3614;DHT22;1821;50.936;6.854;2023-05-21T05:43:32;13.40;99.90
3614;DHT22;1821;50.936;6.854;2023-05-21T05:44:14;13.30;99.90
3614;DHT22;1821;50.936;6.854;2023-05-21T05:47:04;13.40;99.90
3614;DHT22;1821;50.936;6.854;2023-05-21T05:48:36;13.50;99.90
3614;DHT22;1821;50.936;6.854;2023-05-21T05:49:18;13.40;99.90
3614;DHT22;1821;50.936;6.854;2023-05-21T05:52:07;13.50;99.90
3614;DHT22;1821;50.936;6.854;2023-05-21T05:52:48;13.50;99.90
3614;DHT22;1821;50.936;6.854;2023-05-21T05:53:31;13.70;99.90
3614;DHT22;1821;50.936;6.854;2023-05-21T05:54:16;13.70;99.90
3614;DHT22;1821;50.936;6.854;2023-05-21T05:54:58;13.40;99.90
3614;DHT22;1821;50.936;6.854;2023-05-21T05:55:42;13.50;99.90
3614;DHT22;1821;50.936;6.854;2023-05-21T05:56:24;13.70;99.90
3614;DHT22;1821;50.936;6.854;2023-05-21T05:57:07;13.60;99.90
3614;DHT22;1821;50.936;6.854;2023-05-21T05:57:49;13.60;99.90
3614;DHT22;1821;50.936;6.854;2023-05-21T05:59:16;13.80;99.90
3614;DHT22;1821;50.936;6.854;2023-05-21T06:02:06;13.80;99.90
3614;DHT22;1821;50.936;6.854;2023-05-21T06:02:47;13.80;99.90
3614;DHT22;1821;50.936;6.854;2023-05-21T06:03:30;13.80;99.90
3614;DHT22;1821;50.936;6.854;2023-05-21T06:04:12;13.70;99.90
3614;DHT22;1821;50.936;6.854;2023-05-21T06:04:54;14.00;99.90
3614;DHT22;1821;50.936;6.854;2023-05-21T06:05:38;13.70;99.90
3614;DHT22;1821;50.936;6.854;2023-05-21T06:07:46;13.70;99.90
3614;DHT22;1821;50.936;6.854;2023-05-21T06:08:27;13.80;99.90
3614;DHT22;1821;50.936;6.854;2023-05-21T06:09:52;13.70;99.90
3614;DHT22;1821;50.936;6.854;2023-05-21T06:10:34;13.90;99.90
3614;DHT22;1821;50.936;6.854;2023-05-21T06:11:18;14.00;99.90
3614;DHT22;1821;50.936;6.854;2023-05-21T06:12:00;14.00;99.90
3614;DHT22;1821;50.936;6.854;2023-05-21T06:12:42;13.90;99.90
3614;DHT22;1821;50.936;6.854;2023-05-21T06:13:24;13.80;99.90
3614;DHT22;1821;50.936;6.854;2023-05-21T06:14:06;13.70;99.90
3614;DHT22;1821;50.936;6.854;2023-05-21T06:14:48;13.40;99.90
3614;DHT22;1821;50.936;6.854;2023-05-21T06:15:32;13.70;99.90
3614;DHT22;1821;50.936;6.854;2023-05-21T06:16:14;13.90;99.90
3614;DHT22;1821;50.936;6.854;2023-05-21T06:16:57;13.70;99.90
3614;DHT22;1821;50.936;6.854;2023-05-21T06:17:39;13.70;99.90
3614;DHT22;1821;50.936;6.854;2023-05-21T06:18:21;13.90;99.90
3614;DHT22;1821;50.936;6.854;2023-05-21T06:19:03;13.80;99.90
3614;DHT22;1821;50.936;6.854;2023-05-21T06:19:45;13.70;99.90
3614;DHT22;1821;50.936;6.854;2023-05-21T06:20:27;13.80;99.90
3614;DHT22;1821;50.936;6.854;2023-05-21T06:21:10;13.90;99.90
3614;DHT22;1821;50.936;6.854;2023-05-21T06:21:52;13.90;99.90
3614;DHT22;1821;50.936;6.854;2023-05-21T06:22:34;14.00;99.90
3614;DHT22;1821;50.936;6.854;2023-05-21T06:23:17;14.00;99.90
3614;DHT22;1821;50.936;6.854;2023-05-21T06:23:59;13.90;99.90
3614;DHT22;1821;50.936;6.854;2023-05-21T06:24:43;14.10;99.90
3614;DHT22;1821;50.936;6.854;2023-05-21T06:25:25;14.10;99.90
3614;DHT22;1821;50.936;6.854;2023-05-21T06:26:07;14.00;99.90
3614;DHT22;1821;50.936;6.854;2023-05-21T06:26:49;14.00;99.90
3614;DHT22;1821;50.936;6.854;2023-05-21T06:27:31;14.10;99.90
3614;DHT22;1821;50.936;6.854;2023-05-21T06:28:14;14.20;99.90
3614;DHT22;1821;50.936;6.854;2023-05-21T06:29:43;13.90;99.90
3614;DHT22;1821;50.936;6.854;2023-05-21T06:30:25;14.10;99.90
3614;DHT22;1821;50.936;6.854;2023-05-21T06:31:07;14.20;99.90
3614;DHT22;1821;50.936;6.854;2023-05-21T06:31:49;14.20;99.90
3614;DHT22;1821;50.936;6.854;2023-05-21T06:33:57;14.30;99.90
3614;DHT22;1821;50.936;6.854;2023-05-21T06:34:39;14.40;99.90
3614;DHT22;1821;50.936;6.854;2023-05-21T06:35:21;14.40;99.90
3614;DHT22;1821;50.936;6.854;2023-05-21T06:36:47;14.60;99.90
3614;DHT22;1821;50.936;6.854;2023-05-21T06:37:29;14.60;99.90
3614;DHT22;1821;50.936;6.854;2023-05-21T06:38:11;14.30;99.90
3614;DHT22;1821;50.936;6.854;2023-05-21T06:38:53;14.50;99.90
3614;DHT22;1821;50.936;6.854;2023-05-21T06:39:35;14.60;99.90
3614;DHT22;1821;50.936;6.854;2023-05-21T06:40:17;14.50;99.90
3614;DHT22;1821;50.936;6.854;2023-05-21T06:40:59;14.30;99.90
3614;DHT22;1821;50.936;6.854;2023-05-21T06:41:41;14.40;99.90
3614;DHT22;1821;50.936;6.854;2023-05-21T06:42:23;14.70;99.90
3614;DHT22;1821;50.936;6.854;2023-05-21T06:43:05;14.60;99.90
3614;DHT22;1821;50.936;6.854;2023-05-21T06:43:47;14.50;99.90
3614;DHT22;1821;50.936;6.854;2023-05-21T06:44:29;14.70;99.90